createdAt,value
2018-12-26T00:00:04.963Z,102266.17
2018-12-26T00:02:27.112Z,102268.24
2018-12-26T00:04:46.779Z,102270.40
2018-12-26T00:07:06.192Z,102265.59
2018-12-26T00:09:25.537Z,102262.48
2018-12-26T00:11:45.751Z,102257.42
2018-12-26T00:14:06.906Z,102257.07
2018-12-26T00:16:27.891Z,102258.48
2018-12-26T00:18:47.521Z,102259.53
2018-12-26T00:21:07.589Z,102261.45
2018-12-26T00:23:58.988Z,102256.04
2018-12-26T00:26:46.672Z,102253.13
2018-12-26T00:29:20.883Z,102261.42
2018-12-26T00:31:43.776Z,102250.30
2018-12-26T00:34:07.015Z,102232.56
2018-12-26T00:36:39.791Z,102248.34
2018-12-26T00:39:02.684Z,102254.80
2018-12-26T00:41:37.423Z,102236.38
2018-12-26T00:44:06.111Z,102261.64
2018-12-26T00:46:29.727Z,102258.70
2018-12-26T00:48:51.048Z,102253.52
2018-12-26T00:51:12.913Z,102239.60
2018-12-26T00:53:32.972Z,102235.30
2018-12-26T00:55:56.843Z,102243.99
2018-12-26T00:58:32.661Z,102236.29
2018-12-26T01:00:53.879Z,102216.25
2018-12-26T01:03:17.019Z,102244.16
2018-12-26T01:05:41.891Z,102238.55
2018-12-26T01:08:24.298Z,102246.23
2018-12-26T01:11:01.414Z,102225.87
2018-12-26T01:13:20.927Z,102260.35
2018-12-26T01:15:42.669Z,102259.94
2018-12-26T01:18:06.076Z,102260.00
2018-12-26T01:20:28.087Z,102255.38
2018-12-26T01:22:48.557Z,102216.62
2018-12-26T01:25:14.918Z,102242.03
2018-12-26T01:27:36.960Z,102247.21
2018-12-26T01:30:27.486Z,102239.03
2018-12-26T01:33:14.188Z,102224.89
2018-12-26T01:35:32.463Z,102246.18
2018-12-26T01:37:56.363Z,102242.34
2018-12-26T01:40:21.117Z,102242.44
2018-12-26T01:42:44.576Z,102225.98
2018-12-26T01:45:17.340Z,102233.02
2018-12-26T01:47:41.884Z,102242.56
2018-12-26T01:52:58.687Z,102237.58
2018-12-26T01:55:21.176Z,102242.30
2018-12-26T01:57:43.759Z,102233.23
2018-12-26T02:00:04.484Z,102233.70
2018-12-26T02:02:26.759Z,102215.67
2018-12-26T02:04:47.821Z,102234.53
2018-12-26T02:07:00.560Z,102230.59
2018-12-26T02:09:22.565Z,102225.42
2018-12-26T02:11:59.513Z,102231.05
2018-12-26T02:14:22.767Z,102212.68
2018-12-26T02:16:58.535Z,102237.53
2018-12-26T02:19:21.702Z,102235.34
2018-12-26T02:21:44.485Z,102237.84
2018-12-26T02:24:04.200Z,102241.25
2018-12-26T02:26:23.808Z,102230.84
2018-12-26T02:28:44.686Z,102226.92
2018-12-26T02:31:06.450Z,102229.45
2018-12-26T02:33:31.359Z,102221.28
2018-12-26T02:36:02.705Z,102216.61
2018-12-26T02:38:22.187Z,102212.77
2018-12-26T02:40:41.589Z,102214.50
2018-12-26T02:43:01.410Z,102208.38
2018-12-26T02:45:20.807Z,102202.80
2018-12-26T02:47:40.137Z,102200.30
2018-12-26T02:50:00.801Z,102194.56
2018-12-26T02:52:19.994Z,102196.83
2018-12-26T02:54:40.444Z,102188.09
2018-12-26T02:56:59.865Z,102182.96
2018-12-26T02:59:19.313Z,102181.25
2018-12-26T03:01:38.378Z,102178.25
2018-12-26T03:03:58.028Z,102182.03
2018-12-26T03:06:17.948Z,102177.22
2018-12-26T03:08:37.744Z,102180.64
2018-12-26T03:10:57.369Z,102183.59
2018-12-26T03:13:16.450Z,102146.44
2018-12-26T03:15:36.185Z,102194.30
2018-12-26T03:17:55.816Z,102192.54
2018-12-26T03:20:15.158Z,102187.78
2018-12-26T03:22:34.592Z,102187.84
2018-12-26T03:24:54.544Z,102184.88
2018-12-26T03:27:14.099Z,102171.16
2018-12-26T03:29:32.075Z,102170.75
2018-12-26T03:31:52.131Z,102172.50
2018-12-26T03:34:11.595Z,102167.28
2018-12-26T03:36:30.808Z,102169.39
2018-12-26T03:38:50.112Z,102164.96
2018-12-26T03:41:09.996Z,102172.63
2018-12-26T03:43:29.454Z,102175.98
2018-12-26T03:45:48.758Z,102171.53
2018-12-26T03:48:08.168Z,102163.30
2018-12-26T03:50:27.473Z,102159.02
2018-12-26T03:52:46.963Z,102156.52
2018-12-26T03:55:07.401Z,102153.62
2018-12-26T03:57:27.058Z,102141.00
2018-12-26T03:59:46.755Z,102133.23
2018-12-26T04:02:06.078Z,102133.80
2018-12-26T04:04:25.803Z,102153.88
2018-12-26T04:06:45.259Z,102145.70
2018-12-26T04:09:04.247Z,102137.14
2018-12-26T04:11:24.315Z,102124.11
2018-12-26T04:13:42.648Z,102135.12
2018-12-26T04:16:00.775Z,102127.57
2018-12-26T04:18:20.310Z,102151.58
2018-12-26T04:20:39.985Z,102107.60
2018-12-26T04:22:59.026Z,102161.15
2018-12-26T04:25:18.627Z,102161.52
2018-12-26T04:27:37.913Z,102156.81
2018-12-26T04:29:56.952Z,102154.31
2018-12-26T04:32:16.310Z,102138.17
2018-12-26T04:34:36.806Z,102161.30
2018-12-26T04:36:55.857Z,102163.89
2018-12-26T04:39:14.852Z,102158.71
2018-12-26T04:41:34.271Z,102157.00
2018-12-26T04:43:54.009Z,102165.14
2018-12-26T04:46:13.480Z,102170.36
2018-12-26T04:48:32.812Z,102155.52
2018-12-26T04:50:52.300Z,102168.70
2018-12-26T04:53:11.756Z,102163.57
2018-12-26T04:55:32.166Z,102172.22
2018-12-26T04:57:51.697Z,102169.25
2018-12-26T05:00:11.163Z,102173.15
2018-12-26T05:02:30.701Z,102171.02
2018-12-26T05:04:50.281Z,102175.73
2018-12-26T05:07:11.051Z,102172.17
2018-12-26T05:09:30.701Z,102170.32
2018-12-26T05:11:50.178Z,102171.60
2018-12-26T05:14:09.593Z,102166.84
2018-12-26T05:16:29.064Z,102173.64
2018-12-26T05:18:48.778Z,102172.34
2018-12-26T05:21:07.174Z,102155.73
2018-12-26T05:23:26.444Z,102180.56
2018-12-26T05:25:46.800Z,102173.59
2018-12-26T05:28:06.581Z,102180.25
2018-12-26T05:30:25.695Z,102187.09
2018-12-26T05:32:45.569Z,102188.76
2018-12-26T05:35:04.616Z,102188.70
2018-12-26T05:37:23.932Z,102196.84
2018-12-26T05:39:44.015Z,102198.13
2018-12-26T05:42:03.430Z,102195.95
2018-12-26T05:44:21.392Z,102195.80
2018-12-26T05:46:41.739Z,102192.64
2018-12-26T05:49:01.365Z,102198.13
2018-12-26T05:51:19.515Z,102198.17
2018-12-26T05:54:55.730Z,102202.18
2018-12-26T05:57:02.455Z,102195.14
2018-12-26T06:00:16.730Z,102208.12
2018-12-26T06:02:36.240Z,102205.06
2018-12-26T06:06:22.868Z,102206.47
2018-12-26T06:08:41.554Z,102208.12
2018-12-26T06:11:01.908Z,102210.34
2018-12-26T06:13:21.514Z,102208.17
2018-12-26T06:15:28.733Z,102208.12
2018-12-26T06:17:47.950Z,102211.53
2018-12-26T06:20:07.960Z,102211.86
2018-12-26T06:22:27.837Z,102210.87
2018-12-26T06:24:46.950Z,102216.92
2018-12-26T06:27:06.154Z,102219.19
2018-12-26T06:29:26.115Z,102217.08
2018-12-26T06:31:46.035Z,102219.30
2018-12-26T06:34:05.614Z,102218.43
2018-12-26T06:36:26.114Z,102205.59
2018-12-26T06:38:45.630Z,102206.16
2018-12-26T06:41:05.406Z,102197.16
2018-12-26T06:43:25.068Z,102203.30
2018-12-26T06:45:43.203Z,102202.94
2018-12-26T06:48:02.898Z,102205.16
2018-12-26T06:50:23.019Z,102198.33
2018-12-26T06:52:42.240Z,102191.29
2018-12-26T06:55:02.818Z,102205.67
2018-12-26T06:57:22.815Z,102204.70
2018-12-26T06:59:42.876Z,102177.12
2018-12-26T07:02:02.420Z,102224.53
2018-12-26T07:04:21.616Z,102224.53
2018-12-26T07:06:41.601Z,102224.17
2018-12-26T07:08:59.329Z,102228.45
2018-12-26T07:11:18.676Z,102215.63
2018-12-26T07:13:38.294Z,102225.63
2018-12-26T07:15:58.361Z,102224.38
2018-12-26T07:18:17.562Z,102205.63
2018-12-26T07:20:36.765Z,102226.61
2018-12-26T07:22:54.574Z,102224.90
2018-12-26T07:25:14.286Z,102229.24
2018-12-26T07:27:33.627Z,102235.77
2018-12-26T07:31:00.116Z,102226.03
2018-12-26T07:33:42.830Z,102212.22
2018-12-26T07:36:26.439Z,102240.13
2018-12-26T07:42:18.601Z,102252.28
2018-12-26T07:48:46.390Z,102250.26
2018-12-26T07:51:36.378Z,102252.38
2018-12-26T07:54:20.842Z,102253.22
2018-12-26T08:00:08.263Z,102253.63
2018-12-26T08:05:52.370Z,102249.70
2018-12-26T08:11:36.954Z,102223.86
2018-12-26T08:14:39.733Z,102254.83
2018-12-26T08:17:24.850Z,102252.55
2018-12-26T08:20:15.407Z,102230.53
2018-12-26T08:23:17.104Z,102252.33
2018-12-26T08:29:02.469Z,102265.00
2018-12-26T08:32:25.265Z,102258.73
2018-12-26T08:35:23.611Z,102256.55
2018-12-26T08:41:10.738Z,102246.88
2018-12-26T08:46:57.195Z,102231.73
2018-12-26T08:49:47.267Z,102266.36
2018-12-26T08:52:32.564Z,102258.66
2018-12-26T08:55:18.543Z,102231.63
2018-12-26T08:58:18.368Z,102239.86
2018-12-26T09:01:02.875Z,102254.67
2018-12-26T09:04:13.722Z,102262.02
2018-12-26T09:06:56.985Z,102268.95
2018-12-26T09:12:56.410Z,102272.27
2018-12-26T09:18:43.212Z,102272.25
2018-12-26T09:24:28.448Z,102265.34
2018-12-26T09:27:37.462Z,102244.72
2018-12-26T09:30:21.540Z,102279.28
2018-12-26T09:33:05.729Z,102274.40
2018-12-26T09:35:55.943Z,102267.50
2018-12-26T09:38:40.213Z,102258.77
2018-12-26T11:01:48.109Z,102218.28
2018-12-26T11:04:18.788Z,102215.33
2018-12-26T11:06:49.482Z,102213.33
2018-12-26T11:09:20.085Z,102215.82
2018-12-26T11:11:50.717Z,102216.91
2018-12-26T11:15:12.933Z,102205.17
2018-12-26T11:17:44.623Z,102203.00
2018-12-26T11:22:07.694Z,102199.78
2018-12-26T11:24:38.290Z,102202.58
2018-12-26T11:27:08.920Z,102195.60
2018-12-26T11:29:41.083Z,102189.64
2018-12-26T11:32:11.854Z,102191.97
2018-12-26T11:34:42.608Z,102179.55
2018-12-26T11:37:14.042Z,102180.62
2018-12-26T11:39:44.806Z,102183.41
2018-12-26T11:42:16.378Z,102173.19
2018-12-26T11:44:47.125Z,102176.70
2018-12-26T11:47:17.748Z,102173.33
2018-12-26T11:49:48.371Z,102166.90
2018-12-26T11:52:19.479Z,102170.00
2018-12-26T11:54:50.573Z,102159.73
2018-12-26T11:57:21.268Z,102155.90
2018-12-26T11:59:51.961Z,102161.12
2018-12-26T12:02:22.595Z,102153.77
2018-12-26T12:04:54.173Z,102158.57
2018-12-26T12:07:25.214Z,102158.95
2018-12-26T12:09:55.887Z,102150.62
2018-12-26T12:12:26.882Z,102153.95
2018-12-26T12:14:57.780Z,102149.66
2018-12-26T12:17:28.549Z,102156.50
2018-12-26T12:19:59.321Z,102150.71
2018-12-26T12:22:30.421Z,102152.74
2018-12-26T12:25:01.066Z,102149.97
2018-12-26T12:27:31.767Z,102152.55
2018-12-26T12:30:02.477Z,102152.19
2018-12-26T12:32:34.628Z,102144.11
2018-12-26T12:35:06.393Z,102139.39
2018-12-26T12:37:38.130Z,102134.62
2018-12-26T12:40:11.386Z,102135.46
2018-12-26T12:42:42.096Z,102128.98
2018-12-26T12:45:12.987Z,102128.98
2018-12-26T12:47:43.766Z,102126.90
2018-12-26T12:50:14.475Z,102125.74
2018-12-26T12:52:45.291Z,102118.85
2018-12-26T12:55:16.635Z,102123.57
2018-12-26T12:57:47.627Z,102122.56
2018-12-26T13:00:18.499Z,102121.48
2018-12-26T13:02:49.325Z,102123.47
2018-12-26T13:05:20.046Z,102128.66
2018-12-26T13:07:50.730Z,102124.50
2018-12-26T13:10:22.151Z,102130.73
2018-12-26T13:12:53.031Z,102136.42
2018-12-26T13:15:23.848Z,102132.13
2018-12-26T13:17:55.017Z,102133.89
2018-12-26T13:20:25.676Z,102125.28
2018-12-26T13:22:57.628Z,102126.95
2018-12-26T13:25:29.241Z,102129.12
2018-12-26T13:28:00.389Z,102132.54
2018-12-26T13:30:31.105Z,102129.53
2018-12-26T13:33:02.048Z,102132.95
2018-12-26T13:35:32.756Z,102131.66
2018-12-26T13:38:03.736Z,102131.30
2018-12-26T13:40:35.571Z,102139.11
2018-12-26T13:43:06.293Z,102138.18
2018-12-26T13:45:37.393Z,102137.26
2018-12-26T13:48:08.030Z,102132.78
2018-12-26T13:50:38.658Z,102133.00
2018-12-26T13:53:09.365Z,102132.48
2018-12-26T13:55:41.117Z,102124.72
2018-12-26T13:58:11.922Z,102129.89
2018-12-26T14:00:44.374Z,102128.19
2018-12-26T14:03:15.103Z,102126.80
2018-12-26T14:05:46.857Z,102131.47
2018-12-26T14:08:17.980Z,102131.83
2018-12-26T14:10:48.581Z,102145.91
2018-12-26T14:13:19.634Z,102144.45
2018-12-26T14:15:51.473Z,102139.45
2018-12-26T14:18:23.309Z,102140.12
2018-12-26T14:20:54.138Z,102142.14
2018-12-26T14:23:25.962Z,102142.59
2018-12-26T14:27:29.332Z,102142.40
2018-12-26T14:30:20.607Z,102143.33
2018-12-26T14:32:53.315Z,102143.59
2018-12-26T14:35:25.001Z,102148.41
2018-12-26T14:37:56.695Z,102152.90
2018-12-26T14:40:29.446Z,102149.08
2018-12-26T14:43:02.469Z,102151.34
2018-12-26T14:45:34.193Z,102148.44
2018-12-26T14:48:06.081Z,102156.16
2018-12-26T14:50:38.875Z,102155.33
2018-12-26T14:53:10.600Z,102157.97
2018-12-26T14:55:43.357Z,102153.72
2018-12-26T14:58:15.115Z,102156.83
2018-12-26T15:00:46.927Z,102153.78
2018-12-26T15:03:18.614Z,102159.88
2018-12-26T15:05:50.294Z,102161.69
2018-12-26T15:08:22.559Z,102161.69
2018-12-26T15:11:00.599Z,102158.73
2018-12-26T15:13:31.772Z,102150.41
2018-12-26T15:16:09.583Z,102158.63
2018-12-26T15:18:48.046Z,102148.64
2018-12-26T15:21:24.550Z,102135.66
2018-12-26T15:23:56.216Z,102135.70
2018-12-26T15:26:28.661Z,102131.83
2018-12-26T15:29:00.518Z,102127.11
2018-12-26T15:31:32.494Z,102133.59
2018-12-26T15:34:08.764Z,102138.77
2018-12-26T15:36:41.605Z,102134.04
2018-12-26T15:39:13.671Z,102135.75
2018-12-26T15:41:46.281Z,102131.41
2018-12-26T15:44:17.972Z,102137.00
2018-12-26T15:46:49.943Z,102144.81
2018-12-26T15:49:21.645Z,102136.64
2018-12-26T15:51:54.548Z,102137.16
2018-12-26T15:54:26.245Z,102135.95
2018-12-26T15:56:59.231Z,102140.34
2018-12-26T15:59:30.971Z,102139.14
2018-12-26T16:02:02.799Z,102132.22
2018-12-26T16:04:34.505Z,102143.03
2018-12-26T16:07:06.324Z,102136.61
2018-12-26T16:09:38.112Z,102130.13
2018-12-26T16:12:11.055Z,102121.53
2018-12-26T16:14:42.821Z,102122.42
2018-12-26T16:17:15.889Z,102119.04
2018-12-26T16:19:47.680Z,102109.14
2018-12-26T16:22:36.892Z,102119.08
2018-12-26T16:25:09.142Z,102115.16
2018-12-26T16:27:41.558Z,102106.92
2018-12-26T16:30:13.208Z,102110.81
2018-12-26T16:32:45.015Z,102108.22
2018-12-26T16:35:16.707Z,102107.43
2018-12-26T16:37:48.419Z,102104.39
2018-12-26T16:40:20.142Z,102102.30
2018-12-26T16:42:52.600Z,102106.28
2018-12-26T16:45:24.298Z,102106.36
2018-12-26T16:47:56.083Z,102108.96
2018-12-26T16:50:28.020Z,102107.25
2018-12-26T16:53:01.016Z,102096.02
2018-12-26T16:55:33.132Z,102091.62
2018-12-26T16:58:05.552Z,102096.29
2018-12-26T17:00:37.382Z,102089.73
2018-12-26T17:03:09.228Z,102089.72
2018-12-26T17:05:41.072Z,102089.31
2018-12-26T17:08:12.788Z,102094.58
2018-12-26T17:10:44.463Z,102094.20
2018-12-26T17:13:16.175Z,102099.02
2018-12-26T17:15:48.455Z,102101.27
2018-12-26T17:18:20.158Z,102099.11
2018-12-26T17:20:51.982Z,102098.19
2018-12-26T17:23:24.031Z,102095.13
2018-12-26T17:25:55.793Z,102102.11
2018-12-26T17:28:27.452Z,102100.40
2018-12-26T17:31:04.062Z,102099.61
2018-12-26T17:33:33.257Z,102097.86
2018-12-26T17:36:05.063Z,102094.84
2018-12-26T17:38:36.877Z,102096.19
2018-12-26T17:41:08.702Z,102096.19
2018-12-26T17:43:40.376Z,102093.92
2018-12-26T17:46:12.877Z,102089.95
2018-12-26T17:48:44.706Z,102087.86
2018-12-26T17:51:20.891Z,102091.33
2018-12-26T17:54:37.513Z,102092.58
2018-12-26T17:57:22.717Z,102094.80
2018-12-26T18:00:54.398Z,102094.48
2018-12-26T18:03:26.928Z,102088.08
2018-12-26T18:05:58.862Z,102088.55
2018-12-26T18:08:30.665Z,102085.95
2018-12-26T18:11:02.483Z,102092.02
2018-12-26T18:13:34.265Z,102091.17
2018-12-26T18:16:06.014Z,102085.62
2018-12-26T18:18:37.697Z,102091.22
2018-12-26T18:21:10.074Z,102083.41
2018-12-26T18:23:41.758Z,102080.77
2018-12-26T18:26:13.733Z,102078.56
2018-12-26T18:28:45.436Z,102080.77
2018-12-26T18:31:21.942Z,102075.59
2018-12-26T18:33:50.451Z,102082.11
2018-12-26T18:36:22.949Z,102076.52
2018-12-26T18:38:54.764Z,102076.55
2018-12-26T18:41:26.494Z,102068.78
2018-12-26T18:43:58.202Z,102071.03
2018-12-26T18:46:29.877Z,102059.00
2018-12-26T18:49:02.020Z,102059.46
2018-12-26T18:51:33.776Z,102064.19
2018-12-26T18:54:06.705Z,102056.33
2018-12-26T18:56:38.533Z,102057.59
2018-12-26T18:59:10.410Z,102058.00
2018-12-26T19:01:42.134Z,102057.17
2018-12-26T19:04:13.884Z,102056.30
2018-12-26T19:06:47.181Z,102056.75
2018-12-26T19:09:19.707Z,102047.30
2018-12-26T19:11:51.425Z,102051.19
2018-12-26T19:14:23.264Z,102052.48
2018-12-26T19:16:55.044Z,102050.77
2018-12-26T19:19:26.788Z,102048.67
2018-12-26T19:21:58.472Z,102047.39
2018-12-26T19:24:30.596Z,102051.73
2018-12-26T19:27:02.317Z,102054.78
2018-12-26T19:29:34.057Z,102050.89
2018-12-26T19:32:06.816Z,102051.81
2018-12-26T19:34:39.102Z,102049.67
2018-12-26T19:37:11.021Z,102049.26
2018-12-26T19:39:42.918Z,102051.92
2018-12-26T19:42:14.964Z,102051.47
2018-12-26T19:44:47.307Z,102049.30
2018-12-26T19:47:19.092Z,102047.58
2018-12-26T19:49:50.994Z,102048.88
2018-12-26T19:52:22.751Z,102041.98
2018-12-26T19:54:54.624Z,102038.62
2018-12-26T19:57:26.998Z,102030.89
2018-12-26T19:59:58.735Z,102033.94
2018-12-26T20:02:30.496Z,102031.80
2018-12-26T20:05:02.242Z,102029.59
2018-12-26T20:07:34.046Z,102029.97
2018-12-26T20:10:06.882Z,102036.84
2018-12-26T20:12:40.386Z,102034.63
2018-12-26T20:15:12.796Z,102030.70
2018-12-26T20:17:44.628Z,102028.14
2018-12-26T20:20:17.175Z,102027.31
2018-12-26T20:22:49.142Z,102023.46
2018-12-26T20:25:20.901Z,102026.51
2018-12-26T20:27:53.153Z,102018.66
2018-12-26T20:30:24.995Z,102016.48
2018-12-26T20:32:56.694Z,102019.42
2018-12-26T20:35:28.403Z,102020.72
2018-12-26T20:38:00.441Z,102022.88
2018-12-26T20:40:32.276Z,102026.31
2018-12-26T20:43:04.724Z,102027.61
2018-12-26T20:45:36.481Z,102022.77
2018-12-26T20:48:08.286Z,102020.09
2018-12-26T20:50:40.145Z,102014.38
2018-12-26T20:53:12.170Z,102014.30
2018-12-26T20:55:44.694Z,102015.06
2018-12-26T20:58:17.138Z,102008.95
2018-12-26T21:00:49.281Z,102008.16
2018-12-26T21:03:21.053Z,102007.82
2018-12-26T21:05:53.258Z,102008.78
2018-12-26T21:08:25.178Z,102001.09
2018-12-26T21:10:56.887Z,102000.25
2018-12-26T21:13:28.616Z,101999.03
2018-12-26T21:16:01.056Z,101997.77
2018-12-26T21:18:32.802Z,101992.21
2018-12-26T21:21:05.840Z,101989.66
2018-12-26T21:23:37.538Z,101984.52
2018-12-26T21:26:09.394Z,101986.19
2018-12-26T21:28:41.434Z,101980.59
2018-12-26T21:31:13.867Z,101978.45
2018-12-26T21:33:47.610Z,101975.86
2018-12-26T21:36:19.321Z,101977.58
2018-12-26T21:38:51.125Z,101980.13
2018-12-26T21:41:22.980Z,101983.56
2018-12-26T21:43:56.419Z,101983.41
2018-12-26T21:46:29.001Z,101975.63
2018-12-26T21:49:00.775Z,101976.05
2018-12-26T21:51:32.762Z,101977.73
2018-12-26T21:54:04.544Z,101982.50
2018-12-26T21:56:36.894Z,101978.23
2018-12-26T21:59:09.247Z,101977.39
2018-12-26T22:01:41.015Z,101979.14
2018-12-26T22:04:14.705Z,101984.78
2018-12-26T22:06:46.456Z,101983.94
2018-12-26T22:09:18.245Z,101977.12
2018-12-26T22:11:50.124Z,101965.00
2018-12-26T22:14:21.948Z,101967.59
2018-12-26T22:16:53.767Z,101958.11
2018-12-26T22:19:26.006Z,101960.70
2018-12-26T22:21:57.794Z,101960.28
2018-12-26T22:24:29.572Z,101965.50
2018-12-26T22:27:01.483Z,101956.43
2018-12-26T22:29:33.205Z,101958.56
2018-12-26T22:32:05.347Z,101966.80
2018-12-26T22:34:37.658Z,101963.75
2018-12-26T22:37:09.400Z,101952.50
2018-12-26T22:39:41.116Z,101952.92
2018-12-26T22:42:13.071Z,101952.05
2018-12-26T22:44:44.818Z,101954.22
2018-12-26T22:47:17.157Z,101951.59
2018-12-26T22:49:49.616Z,101951.94
2018-12-26T22:52:21.258Z,101948.44
2018-12-26T22:54:54.831Z,101938.08
2018-12-26T22:57:26.839Z,101941.50
2018-12-26T22:59:58.510Z,101933.73
2018-12-26T23:02:30.321Z,101935.55
2018-12-26T23:05:02.439Z,101933.45
2018-12-26T23:07:35.805Z,101935.20
2018-12-26T23:10:09.065Z,101930.97
2018-12-26T23:12:45.688Z,101927.08
2018-12-26T23:15:19.730Z,101934.82
2018-12-26T23:17:51.497Z,101923.65
2018-12-26T23:20:23.463Z,101925.37
2018-12-26T23:22:55.952Z,101925.82
2018-12-26T23:25:27.767Z,101921.09
2018-12-26T23:27:59.433Z,101924.11
2018-12-26T23:30:31.184Z,101913.70
2018-12-26T23:33:02.867Z,101908.98
2018-12-26T23:35:34.511Z,101903.41
2018-12-26T23:38:06.957Z,101898.23
2018-12-26T23:40:38.787Z,101901.69
2018-12-26T23:43:10.428Z,101891.33
2018-12-26T23:45:42.392Z,101892.97
2018-12-26T23:48:14.167Z,101892.48
2018-12-26T23:50:46.865Z,101888.53
2018-12-26T23:53:19.324Z,101893.64
2018-12-26T23:55:51.317Z,101889.80
2018-12-26T23:58:23.009Z,101879.85
